createdAt,value
2023-03-22T00:01:01.462Z,22.65
2023-03-22T00:05:01.693Z,22.62
2023-03-22T00:09:01.912Z,22.59
2023-03-22T00:13:01.908Z,22.61
2023-03-22T00:17:01.859Z,22.55
2023-03-22T00:21:01.802Z,22.57
2023-03-22T00:25:01.758Z,22.54
2023-03-22T00:29:01.718Z,22.52
2023-03-22T00:33:01.673Z,22.48
2023-03-22T00:37:01.657Z,22.50
2023-03-22T00:41:01.657Z,22.48
2023-03-22T00:45:01.566Z,22.44
2023-03-22T00:49:01.566Z,22.44
2023-03-22T00:53:01.591Z,22.43
2023-03-22T00:57:01.690Z,22.38
2023-03-22T01:01:01.799Z,22.38
2023-03-22T01:05:01.721Z,22.37
2023-03-22T01:09:01.830Z,22.36
2023-03-22T01:13:01.929Z,22.34
2023-03-22T01:17:01.935Z,22.31
2023-03-22T01:21:01.946Z,22.30
2023-03-22T01:25:01.929Z,22.25
2023-03-22T01:29:01.914Z,22.24
2023-03-22T01:33:01.950Z,22.25
2023-03-22T01:37:01.912Z,22.21
2023-03-22T01:41:01.912Z,22.20
2023-03-22T01:45:01.918Z,22.20
2023-03-22T01:49:02.008Z,22.16
2023-03-22T01:53:01.942Z,22.13
2023-03-22T01:57:01.972Z,22.09
2023-03-22T02:01:02.040Z,22.09
2023-03-22T02:05:02.073Z,22.04
2023-03-22T02:09:02.209Z,22.02
2023-03-22T02:13:02.238Z,22.02
2023-03-22T02:17:02.295Z,21.99
2023-03-22T02:21:02.651Z,21.95
2023-03-22T02:25:02.496Z,21.95
2023-03-22T02:29:02.603Z,21.92
2023-03-22T02:33:02.733Z,21.92
2023-03-22T02:37:02.805Z,21.86
2023-03-22T02:41:02.942Z,21.88
2023-03-22T02:45:03.062Z,21.86
2023-03-22T02:49:03.208Z,21.86
2023-03-22T02:53:03.318Z,21.85
2023-03-22T02:57:03.419Z,21.83
2023-03-22T03:01:03.610Z,21.83
2023-03-22T03:05:03.709Z,21.81
2023-03-22T03:09:03.818Z,21.83
2023-03-22T03:13:03.963Z,21.81
2023-03-22T03:17:04.078Z,21.76
2023-03-22T03:21:04.258Z,21.78
2023-03-22T03:25:04.389Z,21.78
2023-03-22T03:29:04.515Z,21.72
2023-03-22T03:33:04.706Z,21.69
2023-03-22T03:37:04.791Z,21.69
2023-03-22T03:41:04.977Z,21.66
2023-03-22T03:45:05.113Z,21.65
2023-03-22T03:49:05.260Z,21.61
2023-03-22T03:53:05.419Z,21.58
2023-03-22T03:57:05.570Z,21.57
2023-03-22T04:01:05.753Z,21.57
2023-03-22T04:05:06.124Z,21.54
2023-03-22T04:09:06.164Z,21.54
2023-03-22T04:13:06.367Z,21.52
2023-03-22T04:17:06.577Z,21.49
2023-03-22T04:21:06.526Z,21.47
2023-03-22T04:25:06.535Z,21.45
2023-03-22T04:29:06.459Z,21.44
2023-03-22T04:33:06.448Z,21.40
2023-03-22T04:37:06.410Z,21.38
2023-03-22T04:41:06.376Z,21.37
2023-03-22T04:45:06.346Z,21.33
2023-03-22T04:49:06.314Z,21.33
2023-03-22T04:53:06.255Z,21.34
2023-03-22T04:57:06.303Z,21.30
2023-03-22T05:01:06.274Z,21.28
2023-03-22T05:05:06.255Z,21.26
2023-03-22T05:09:06.179Z,21.24
2023-03-22T05:13:06.182Z,21.24
2023-03-22T05:17:06.135Z,21.24
2023-03-22T05:21:06.313Z,21.23
2023-03-22T05:25:06.063Z,21.24
2023-03-22T05:29:06.014Z,21.19
2023-03-22T05:33:05.956Z,21.15
2023-03-22T05:37:05.939Z,21.14
2023-03-22T05:41:05.883Z,21.13
2023-03-22T05:45:05.894Z,21.09
2023-03-22T05:49:05.831Z,21.13
2023-03-22T05:53:05.822Z,21.15
2023-03-22T05:57:05.795Z,21.21
2023-03-22T06:01:05.753Z,21.27
2023-03-22T06:05:05.733Z,21.31
2023-03-22T06:09:16.484Z,21.34
2023-03-22T06:13:06.722Z,21.37
2023-03-22T06:17:05.622Z,21.42
2023-03-22T06:21:05.808Z,21.42
2023-03-22T06:25:05.812Z,21.48
2023-03-22T06:29:05.771Z,21.51
2023-03-22T06:33:05.714Z,21.54
2023-03-22T06:37:05.670Z,21.58
2023-03-22T06:41:05.594Z,21.69
2023-03-22T06:45:05.823Z,21.83
2023-03-22T06:49:05.860Z,21.99
2023-03-22T06:53:05.528Z,22.24
2023-03-22T06:57:05.487Z,22.43
2023-03-22T07:01:05.884Z,22.71
2023-03-22T07:05:05.410Z,22.92
2023-03-22T07:09:05.829Z,23.07
2023-03-22T07:13:05.324Z,23.23
2023-03-22T07:17:05.364Z,23.33
2023-03-22T07:21:05.404Z,23.46
2023-03-22T07:25:05.477Z,23.48
2023-03-22T07:29:05.860Z,23.54
2023-03-22T07:33:05.658Z,23.57
2023-03-22T07:37:05.829Z,23.61
2023-03-22T07:41:05.920Z,23.71
2023-03-22T07:45:05.890Z,23.75
2023-03-22T07:49:05.875Z,23.76
2023-03-22T07:53:05.774Z,23.81
2023-03-22T07:57:05.771Z,23.81
2023-03-22T08:01:05.918Z,23.78
2023-03-22T08:05:06.395Z,23.82
2023-03-22T08:09:06.090Z,23.86
2023-03-22T08:13:06.058Z,23.82
2023-03-22T08:17:06.339Z,23.85
2023-03-22T08:21:05.993Z,23.88
2023-03-22T08:25:05.941Z,23.98
2023-03-22T08:29:05.884Z,24.05
2023-03-22T08:33:05.889Z,24.01
2023-03-22T08:37:05.919Z,24.03
2023-03-22T08:41:05.864Z,24.06
2023-03-22T08:45:05.761Z,24.17
2023-03-22T08:49:06.380Z,24.24
2023-03-22T08:53:05.690Z,24.27
2023-03-22T08:57:05.887Z,24.29
2023-03-22T09:01:05.766Z,24.31
2023-03-22T09:05:05.779Z,24.34
2023-03-22T09:09:05.748Z,24.33
2023-03-22T09:13:05.866Z,24.31
2023-03-22T09:17:05.658Z,24.31
2023-03-22T09:21:05.656Z,24.34
2023-03-22T09:25:05.904Z,24.34
2023-03-22T09:29:05.903Z,24.31
2023-03-22T09:33:05.525Z,24.39
2023-03-22T09:37:05.900Z,24.40
2023-03-22T09:41:05.439Z,24.39
2023-03-22T09:45:05.891Z,24.40
2023-03-22T09:49:05.904Z,24.43
2023-03-22T09:53:05.680Z,24.43
2023-03-22T09:57:05.816Z,24.48
2023-03-22T10:01:06.149Z,24.46
2023-03-22T10:05:06.134Z,24.43
2023-03-22T10:09:06.414Z,24.47
2023-03-22T10:13:06.460Z,24.48
2023-03-22T10:17:06.507Z,24.48
2023-03-22T10:21:06.893Z,24.53
2023-03-22T10:25:06.743Z,24.50
2023-03-22T10:29:06.838Z,24.54
2023-03-22T10:33:06.921Z,24.51
2023-03-22T10:37:07.417Z,24.36
2023-03-22T10:41:07.405Z,24.34
2023-03-22T10:45:07.390Z,24.36
2023-03-22T10:49:07.005Z,24.36
2023-03-22T10:53:07.050Z,24.34
2023-03-22T10:57:07.444Z,24.34
2023-03-22T11:01:07.381Z,24.37
2023-03-22T11:05:07.289Z,24.41
2023-03-22T11:09:07.323Z,24.41
2023-03-22T11:13:07.451Z,24.48
2023-03-22T11:17:07.501Z,24.48
2023-03-22T11:21:07.572Z,24.54
2023-03-22T11:25:07.660Z,24.57
2023-03-22T11:29:07.737Z,24.57
2023-03-22T11:33:07.870Z,24.60
2023-03-22T11:37:07.968Z,24.58
2023-03-22T11:41:07.931Z,24.53
2023-03-22T11:45:07.964Z,24.44
2023-03-22T11:49:08.466Z,24.53
2023-03-22T11:53:08.083Z,24.58
2023-03-22T11:57:08.144Z,24.61
2023-03-22T12:01:08.156Z,24.64
2023-03-22T12:05:08.316Z,24.67
2023-03-22T12:09:08.278Z,24.65
2023-03-22T12:13:08.319Z,24.65
2023-03-22T12:17:08.319Z,24.65
2023-03-22T12:21:08.361Z,24.70
2023-03-22T12:25:08.361Z,24.67
2023-03-22T12:29:08.538Z,24.65
2023-03-22T12:33:08.512Z,24.67
2023-03-22T12:37:08.960Z,24.64
2023-03-22T12:41:08.469Z,24.60
2023-03-22T12:45:08.488Z,24.54
2023-03-22T12:49:09.002Z,24.57
2023-03-22T12:53:08.556Z,24.54
2023-03-22T12:57:08.540Z,24.60
2023-03-22T13:01:08.560Z,24.63
2023-03-22T13:05:08.508Z,24.70
2023-03-22T13:09:08.482Z,24.70
2023-03-22T13:13:08.569Z,24.75
2023-03-22T13:17:08.687Z,24.82
2023-03-22T13:21:08.631Z,24.85
2023-03-22T13:25:08.683Z,24.91
2023-03-22T13:29:08.618Z,24.93
2023-03-22T13:33:09.066Z,24.96
2023-03-22T13:37:08.741Z,24.92
2023-03-22T13:41:08.903Z,24.92
2023-03-22T13:45:09.008Z,24.89
2023-03-22T13:49:09.306Z,24.89
2023-03-22T13:53:09.449Z,24.91
2023-03-22T13:57:09.552Z,24.89
2023-03-22T14:01:09.821Z,24.88
2023-03-22T14:05:09.844Z,24.85
2023-03-22T14:09:09.870Z,24.88
2023-03-22T14:13:09.917Z,24.89
2023-03-22T14:17:09.864Z,24.92
2023-03-22T14:21:09.872Z,24.88
2023-03-22T14:46:00.009Z,24.79
2023-03-22T14:49:59.952Z,24.82
2023-03-22T14:53:59.955Z,24.82
2023-03-22T14:57:59.889Z,24.81
2023-03-22T15:01:59.868Z,24.82
2023-03-22T15:05:59.784Z,24.79
2023-03-22T15:09:59.764Z,24.79
2023-03-22T15:13:59.708Z,24.78
2023-03-22T15:17:59.679Z,24.75
2023-03-22T15:21:59.657Z,24.78
2023-03-22T15:25:59.608Z,24.75
2023-03-22T15:29:59.570Z,24.74
2023-03-22T15:33:59.531Z,24.74
2023-03-22T15:37:59.494Z,24.71
2023-03-22T15:41:59.485Z,24.74
2023-03-22T15:45:59.463Z,24.74
2023-03-22T15:49:59.400Z,24.72
2023-03-22T15:53:59.340Z,24.72
2023-03-22T15:57:59.325Z,24.71
2023-03-22T16:01:59.292Z,24.72
2023-03-22T16:05:59.250Z,24.68
2023-03-22T16:09:59.208Z,24.68
2023-03-22T16:13:59.280Z,24.67
2023-03-22T16:17:59.401Z,24.68
2023-03-22T16:21:59.489Z,24.70
2023-03-22T16:25:59.590Z,24.65
2023-03-22T16:29:59.788Z,24.64
2023-03-22T16:33:59.859Z,24.63
2023-03-22T16:37:59.948Z,24.61
2023-03-22T16:42:00.121Z,24.60
2023-03-22T16:46:00.242Z,24.57
2023-03-22T16:50:00.387Z,24.58
2023-03-22T16:54:00.452Z,24.58
2023-03-22T16:58:00.617Z,24.58
2023-03-22T17:02:00.745Z,24.57
2023-03-22T17:06:00.895Z,24.54
2023-03-22T17:10:01.028Z,24.54
2023-03-22T17:14:01.204Z,24.51
2023-03-22T17:18:01.385Z,24.53
2023-03-22T17:22:01.579Z,24.50
2023-03-22T17:26:01.731Z,24.51
2023-03-22T17:30:01.901Z,24.48
2023-03-22T17:34:02.774Z,24.47
2023-03-22T17:38:02.940Z,24.46
2023-03-22T17:42:02.424Z,24.43
2023-03-22T17:46:49.075Z,24.44
2023-03-22T17:50:03.513Z,24.43
2023-03-22T17:54:35.471Z,24.41
2023-03-22T18:02:02.433Z,24.39
2023-03-22T18:06:02.339Z,24.37
2023-03-22T18:10:02.358Z,24.34
2023-03-22T18:14:13.812Z,24.31
2023-03-22T18:18:03.249Z,24.30
2023-03-22T18:22:02.259Z,24.23
2023-03-22T18:26:02.255Z,24.21
2023-03-22T18:30:02.208Z,24.19
2023-03-22T18:34:02.117Z,24.13
2023-03-22T18:38:02.618Z,24.10
2023-03-22T18:42:08.553Z,24.09
2023-03-22T18:46:17.095Z,24.09
2023-03-22T18:50:02.992Z,24.09
2023-03-22T18:54:02.773Z,24.03
2023-03-22T18:58:01.938Z,24.02
2023-03-22T19:02:09.876Z,23.99
2023-03-22T19:06:02.835Z,23.95
2023-03-22T19:10:01.825Z,23.96
2023-03-22T19:14:49.551Z,23.92
2023-03-22T19:18:02.770Z,23.91
2023-03-22T19:22:01.689Z,23.89
2023-03-22T19:26:01.689Z,23.86
2023-03-22T19:30:01.697Z,23.88
2023-03-22T19:34:01.628Z,23.86
2023-03-22T19:38:01.563Z,23.85
2023-03-22T19:42:06.510Z,23.82
2023-03-22T19:46:02.614Z,23.79
2023-03-22T19:50:01.563Z,23.75
2023-03-22T19:58:02.559Z,23.69
2023-03-22T20:02:01.446Z,23.67
2023-03-22T20:06:01.980Z,23.62
2023-03-22T20:10:01.577Z,23.60
2023-03-22T20:14:01.709Z,23.61
2023-03-22T20:18:01.932Z,23.57
2023-03-22T20:22:02.094Z,23.57
2023-03-22T20:26:02.304Z,23.51
2023-03-22T20:30:02.541Z,23.47
2023-03-22T20:34:02.483Z,23.47
2023-03-22T20:38:02.516Z,23.44
2023-03-22T20:42:02.467Z,23.44
2023-03-22T20:46:02.402Z,23.43
2023-03-22T20:50:02.371Z,23.38
2023-03-22T20:54:02.350Z,23.37
2023-03-22T20:58:02.316Z,23.33
2023-03-22T21:02:02.271Z,23.27
2023-03-22T21:06:02.214Z,23.27
2023-03-22T21:10:02.187Z,23.26
2023-03-22T21:14:02.165Z,23.23
2023-03-22T21:18:02.113Z,23.21
2023-03-22T21:22:05.111Z,23.14
2023-03-22T21:26:02.030Z,23.16
2023-03-22T21:30:01.995Z,23.13
2023-03-22T21:34:01.966Z,23.12
2023-03-22T21:38:01.934Z,23.12
2023-03-22T21:42:01.915Z,23.09
2023-03-22T21:46:01.865Z,23.07
2023-03-22T21:50:01.863Z,23.02
2023-03-22T21:54:01.764Z,23.03
2023-03-22T21:58:01.757Z,23.01
2023-03-22T22:02:01.723Z,22.96
2023-03-22T22:06:01.692Z,22.95
2023-03-22T22:10:01.679Z,22.92
2023-03-22T22:14:01.623Z,22.92
2023-03-22T22:18:01.600Z,22.88
2023-03-22T22:22:01.561Z,22.85
2023-03-22T22:26:01.507Z,22.83
2023-03-22T22:30:01.548Z,22.83
2023-03-22T22:34:01.412Z,22.83
2023-03-22T22:38:01.409Z,22.78
2023-03-22T22:42:01.375Z,22.76
2023-03-22T22:46:01.448Z,22.74
2023-03-22T22:50:01.614Z,22.69
2023-03-22T22:54:01.779Z,22.68
2023-03-22T22:58:02.000Z,22.64
2023-03-22T23:02:02.214Z,22.62
2023-03-22T23:06:02.449Z,22.59
2023-03-22T23:10:02.396Z,22.57
2023-03-22T23:14:02.376Z,22.55
2023-03-22T23:22:02.306Z,22.51
2023-03-22T23:50:02.015Z,22.33
